Time;durP1;ratioP1;P1;durP2;ratioP2;P2;SDS_P1;SDS_P2;PMS_P1;PMS_P2;Temp;Humidity;BMP_temperature;BMP_pressure;BME280_temperature;BME280_humidity;BME280_pressure;Samples;Min_cycle;Max_cycle;Signal;HPM_P1;HPM_P2
2021/06/05 00:01:39;;;;;;;7.97;3.65;;;20.00;49.00;;;;;;5013255;28;20076;-64
2021/06/05 00:04:05;;;;;;;5.30;3.58;;;20.10;49.00;;;;;;5010833;28;20065;-64
2021/06/05 00:06:31;;;;;;;4.50;2.60;;;20.10;48.80;;;;;;5013611;28;20132;-64
2021/06/05 00:08:57;;;;;;;7.80;3.05;;;20.00;49.10;;;;;;5012447;28;20029;-63
2021/06/05 00:11:27;;;;;;;9.27;2.90;;;20.00;49.10;;;;;;5011833;28;20026;-63
2021/06/05 00:13:57;;;;;;;6.22;3.25;;;20.00;49.20;;;;;;5020025;28;20475;-63
2021/06/05 00:16:26;;;;;;;11.35;3.05;;;20.00;49.50;;;;;;5014072;28;20026;-64
2021/06/05 00:18:53;;;;;;;7.88;3.72;;;20.00;49.40;;;;;;5012696;28;20025;-65
2021/06/05 00:21:21;;;;;;;7.00;3.13;;;20.00;49.30;;;;;;5010595;28;20143;-64
2021/06/05 00:23:47;;;;;;;8.00;3.47;;;20.10;49.20;;;;;;5006752;28;20033;-63
2021/06/05 00:26:14;;;;;;;6.28;3.65;;;20.10;49.30;;;;;;5013536;28;20029;-63
2021/06/05 00:28:40;;;;;;;5.70;3.13;;;20.00;49.30;;;;;;5014559;28;20022;-64
2021/06/05 00:31:05;;;;;;;8.48;3.50;;;20.10;49.40;;;;;;5013245;28;20044;-63
2021/06/05 00:33:32;;;;;;;8.35;3.22;;;20.00;49.70;;;;;;5013082;28;20076;-65
2021/06/05 00:35:59;;;;;;;6.45;3.30;;;19.90;49.70;;;;;;5015789;28;20029;-63
2021/06/05 00:38:24;;;;;;;8.10;3.03;;;19.90;49.70;;;;;;5011177;28;20500;-63
2021/06/05 00:40:54;;;;;;;4.95;3.15;;;19.90;49.60;;;;;;5014391;28;20065;-63
2021/06/05 00:43:26;;;;;;;4.72;3.15;;;19.90;49.70;;;;;;5015665;28;20038;-63
2021/06/05 00:45:53;;;;;;;7.90;3.10;;;19.90;49.70;;;;;;5019220;28;20067;-64
2021/06/05 00:48:19;;;;;;;6.88;3.30;;;19.90;49.70;;;;;;5014092;28;20408;-64
2021/06/05 00:50:46;;;;;;;6.00;3.53;;;19.90;49.60;;;;;;5010979;28;20025;-63
2021/06/05 00:53:13;;;;;;;5.03;2.97;;;19.90;49.70;;;;;;5013939;28;20100;-63
2021/06/05 00:55:42;;;;;;;6.40;3.08;;;19.80;49.90;;;;;;5012356;28;20033;-65
2021/06/05 00:58:08;;;;;;;6.03;3.22;;;19.80;49.90;;;;;;5015829;28;20036;-63
2021/06/05 01:00:53;;;;;;;6.25;3.22;;;19.80;49.80;;;;;;5014369;28;20041;-64
2021/06/05 01:03:20;;;;;;;7.22;2.97;;;19.80;50.10;;;;;;5015807;28;20113;-64
2021/06/05 01:05:47;;;;;;;6.93;3.22;;;19.70;50.80;;;;;;5014885;28;20061;-62
2021/06/05 01:08:41;;;;;;;7.63;3.10;;;19.80;50.00;;;;;;5015023;28;20048;-63
2021/06/05 01:11:14;;;;;;;9.02;2.88;;;19.80;50.00;;;;;;5015765;28;20030;-64
2021/06/05 01:14:01;;;;;;;4.68;3.25;;;19.80;49.80;;;;;;5020200;28;20060;-63
2021/06/05 01:16:28;;;;;;;4.93;2.70;;;19.70;49.90;;;;;;5019736;28;20021;-63
2021/06/05 01:19:06;;;;;;;5.93;3.20;;;19.70;49.90;;;;;;5018811;28;20033;-63
2021/06/05 01:22:00;;;;;;;5.70;3.33;;;19.70;49.70;;;;;;5018628;28;20122;-63
2021/06/05 01:24:44;;;;;;;6.63;3.40;;;19.80;49.70;;;;;;5017052;28;20040;-62
2021/06/05 01:27:21;;;;;;;8.00;3.17;;;19.70;49.70;;;;;;5019497;28;20505;-63
2021/06/05 01:29:51;;;;;;;6.55;3.00;;;19.70;49.70;;;;;;5017359;28;20278;-63
2021/06/05 01:32:17;;;;;;;6.32;3.03;;;19.70;49.70;;;;;;5019720;28;20046;-63
2021/06/05 01:34:47;;;;;;;3.92;3.03;;;19.60;49.90;;;;;;5018387;28;20088;-62
2021/06/05 01:37:15;;;;;;;5.07;2.83;;;19.60;49.90;;;;;;5019899;28;20033;-64
2021/06/05 01:39:44;;;;;;;5.40;3.03;;;19.70;50.00;;;;;;5021176;28;20025;-62
2021/06/05 01:42:15;;;;;;;11.10;3.58;;;19.70;49.90;;;;;;5018541;28;20064;-64
2021/06/05 01:44:43;;;;;;;5.93;2.95;;;19.70;49.70;;;;;;5016953;28;20041;-63
2021/06/05 01:47:11;;;;;;;9.05;3.85;;;19.70;49.60;;;;;;5018003;28;20036;-64
2021/06/05 01:49:37;;;;;;;6.93;2.97;;;19.70;49.70;;;;;;5019284;28;20029;-63
2021/06/05 01:52:11;;;;;;;6.88;2.95;;;19.60;49.80;;;;;;5019164;28;20112;-63
2021/06/05 01:54:42;;;;;;;7.22;3.20;;;19.60;49.90;;;;;;5018337;28;20408;-63
2021/06/05 01:57:14;;;;;;;10.45;4.60;;;19.50;49.90;;;;;;5032795;28;20108;-64
2021/06/05 01:59:40;;;;;;;4.72;3.15;;;19.50;50.00;;;;;;5015867;28;20047;-64
2021/06/05 02:02:08;;;;;;;5.03;3.10;;;19.50;49.80;;;;;;5019516;28;20045;-64
2021/06/05 02:04:34;;;;;;;5.43;3.47;;;19.50;49.70;;;;;;5019078;28;20392;-63
2021/06/05 02:07:00;;;;;;;3.25;2.83;;;19.50;49.70;;;;;;5023710;28;20073;-63
2021/06/05 02:09:27;;;;;;;8.25;3.17;;;19.50;49.60;;;;;;5016963;28;20034;-64
2021/06/05 02:11:58;;;;;;;6.10;3.08;;;19.50;49.60;;;;;;5017508;28;20029;-64
2021/06/05 02:15:03;;;;;;;3.35;2.80;;;19.50;49.80;;;;;;5017933;28;20049;-64
2021/06/05 02:17:33;;;;;;;7.40;2.85;;;19.40;49.90;;;;;;5011989;28;20046;-64
2021/06/05 02:20:26;;;;;;;5.30;3.08;;;19.50;49.70;;;;;;5016897;28;20025;-64
2021/06/05 02:22:53;;;;;;;6.57;2.97;;;19.50;49.70;;;;;;5009616;28;20053;-62
2021/06/05 02:25:23;;;;;;;5.95;3.33;;;19.40;50.00;;;;;;5018211;28;20041;-65
2021/06/05 02:27:58;;;;;;;6.53;2.95;;;19.40;50.00;;;;;;5016186;28;20058;-64
2021/06/05 02:30:25;;;;;;;6.65;2.67;;;19.50;49.80;;;;;;5015905;28;20025;-63
2021/06/05 02:32:52;;;;;;;5.47;2.58;;;19.40;49.90;;;;;;5015769;28;20055;-65
2021/06/05 02:35:25;;;;;;;5.72;3.13;;;19.50;50.00;;;;;;5014988;28;20443;-64
2021/06/05 02:37:52;;;;;;;4.95;3.13;;;19.50;50.10;;;;;;5015461;28;20091;-64
2021/06/05 02:40:21;;;;;;;3.92;2.60;;;19.50;50.10;;;;;;5016570;28;20117;-65
2021/06/05 02:42:48;;;;;;;5.15;2.97;;;19.50;50.20;;;;;;5015799;28;20037;-64
2021/06/05 02:45:22;;;;;;;5.20;3.22;;;19.50;50.10;;;;;;5015982;28;20040;-64
2021/06/05 02:47:57;;;;;;;9.68;2.80;;;19.50;50.10;;;;;;5011452;28;20486;-64
2021/06/05 02:50:28;;;;;;;8.93;4.15;;;19.50;50.20;;;;;;5013590;28;20037;-64
2021/06/05 02:52:54;;;;;;;5.40;2.60;;;19.50;50.30;;;;;;5011844;28;20056;-64
2021/06/05 02:55:22;;;;;;;5.65;3.15;;;19.40;50.40;;;;;;5016396;28;20029;-64
2021/06/05 02:57:49;;;;;;;6.35;2.78;;;19.40;50.40;;;;;;5015070;28;20040;-63
2021/06/05 03:00:28;;;;;;;4.30;2.92;;;19.40;50.40;;;;;;5011850;28;20417;-64
2021/06/05 03:02:54;;;;;;;4.68;3.00;;;19.40;50.60;;;;;;5013369;28;20036;-64
2021/06/05 03:05:20;;;;;;;6.40;3.00;;;19.40;50.80;;;;;;5014562;28;20029;-65
2021/06/05 03:07:45;;;;;;;7.70;2.75;;;19.40;50.70;;;;;;5013646;28;20539;-63
2021/06/05 03:10:12;;;;;;;9.45;3.13;;;19.40;50.70;;;;;;5017462;28;21251;-64
2021/06/05 03:12:38;;;;;;;4.60;3.15;;;19.40;50.60;;;;;;5016526;28;20038;-64
2021/06/05 03:15:06;;;;;;;3.42;2.85;;;19.50;50.50;;;;;;5016582;28;20033;-64
2021/06/05 03:17:32;;;;;;;5.60;2.72;;;19.30;50.80;;;;;;5016664;28;20014;-63
2021/06/05 03:19:59;;;;;;;5.80;2.83;;;19.30;50.70;;;;;;5014438;28;20025;-63
2021/06/05 03:22:24;;;;;;;3.92;1.88;;;19.30;50.70;;;;;;5015926;28;20504;-65
2021/06/05 03:24:51;;;;;;;4.13;2.45;;;19.40;50.60;;;;;;5014780;28;20060;-64
2021/06/05 03:27:19;;;;;;;3.35;2.10;;;19.50;50.20;;;;;;5016450;28;20456;-64
2021/06/05 03:29:45;;;;;;;3.05;2.42;;;19.50;50.20;;;;;;5014352;28;20034;-63
2021/06/05 03:32:11;;;;;;;3.97;2.28;;;19.50;50.10;;;;;;5017079;28;20033;-63
2021/06/05 03:34:37;;;;;;;2.35;2.13;;;19.40;50.30;;;;;;5016806;28;20136;-64
2021/06/05 03:37:06;;;;;;;4.40;2.50;;;19.50;50.10;;;;;;5012659;28;20148;-65
2021/06/05 03:39:32;;;;;;;4.40;2.47;;;19.40;50.30;;;;;;5016476;28;20791;-64
2021/06/05 03:41:58;;;;;;;2.97;1.80;;;19.40;50.30;;;;;;5014685;28;20044;-63
2021/06/05 03:44:24;;;;;;;2.30;2.10;;;19.50;50.10;;;;;;5014079;28;20499;-64
2021/06/05 03:46:50;;;;;;;5.43;2.30;;;19.50;49.90;;;;;;5013560;28;20511;-64
2021/06/05 03:49:15;;;;;;;4.20;2.03;;;19.60;49.70;;;;;;5013890;28;20458;-64
2021/06/05 03:51:41;;;;;;;3.90;2.65;;;19.60;49.60;;;;;;5014465;28;20088;-64
2021/06/05 03:54:07;;;;;;;4.40;2.30;;;19.70;49.70;;;;;;5014752;28;20145;-64
2021/06/05 03:56:34;;;;;;;2.33;2.13;;;19.70;49.60;;;;;;5016324;28;20056;-64
2021/06/05 03:59:00;;;;;;;3.20;2.55;;;19.80;49.50;;;;;;5014857;28;20113;-64
2021/06/05 04:01:28;;;;;;;4.85;1.65;;;19.70;49.70;;;;;;5015410;28;20025;-64
2021/06/05 04:03:55;;;;;;;2.53;2.33;;;19.70;49.70;;;;;;5013940;28;20091;-64
2021/06/05 04:06:21;;;;;;;2.55;2.00;;;19.70;49.60;;;;;;5014908;28;20119;-61
2021/06/05 04:08:49;;;;;;;4.50;2.28;;;19.80;49.50;;;;;;5013027;28;20720;-63
2021/06/05 04:11:16;;;;;;;2.10;1.90;;;19.80;49.50;;;;;;5016229;28;20033;-63
2021/06/05 04:13:42;;;;;;;6.20;2.10;;;19.80;49.50;;;;;;5016081;28;20034;-62
2021/06/05 04:16:08;;;;;;;3.88;2.10;;;19.90;49.50;;;;;;5015040;28;20396;-63
2021/06/05 04:18:37;;;;;;;3.05;2.45;;;19.90;49.30;;;;;;5013506;28;20034;-63
2021/06/05 04:21:06;;;;;;;2.83;2.47;;;19.90;49.40;;;;;;5013017;28;20518;-63
2021/06/05 04:23:33;;;;;;;4.30;2.17;;;20.00;49.30;;;;;;5014038;28;20389;-63
2021/06/05 04:26:00;;;;;;;2.70;2.45;;;19.90;49.60;;;;;;5016772;28;20034;-64
2021/06/05 04:28:27;;;;;;;3.40;1.90;;;20.00;49.40;;;;;;5014871;28;20030;-64
2021/06/05 04:30:54;;;;;;;2.38;2.00;;;20.00;49.50;;;;;;5015748;28;20496;-63
2021/06/05 04:33:23;;;;;;;5.45;2.08;;;20.00;49.50;;;;;;5014570;28;20041;-64
2021/06/05 04:35:49;;;;;;;4.32;2.53;;;20.00;49.80;;;;;;5014568;28;20448;-64
2021/06/05 04:38:16;;;;;;;5.00;2.38;;;20.10;49.60;;;;;;5015037;28;20045;-63
2021/06/05 04:40:42;;;;;;;3.42;2.50;;;20.00;49.70;;;;;;5015116;28;20037;-64
2021/06/05 04:43:08;;;;;;;6.68;2.03;;;20.10;49.60;;;;;;5013261;28;20022;-64
2021/06/05 04:45:35;;;;;;;2.63;2.42;;;20.20;49.60;;;;;;5014501;28;20083;-64
2021/06/05 04:48:01;;;;;;;3.47;1.77;;;20.20;49.60;;;;;;5018692;28;20033;-64
2021/06/05 04:50:31;;;;;;;4.05;2.20;;;20.20;49.50;;;;;;5019272;28;20068;-65
2021/06/05 04:52:57;;;;;;;2.58;2.25;;;20.20;49.60;;;;;;5016787;28;20033;-64
2021/06/05 04:55:23;;;;;;;5.40;2.65;;;20.20;49.70;;;;;;5019449;28;20033;-64
2021/06/05 04:57:53;;;;;;;3.88;2.08;;;20.20;49.80;;;;;;5019468;28;20511;-64
2021/06/05 05:00:34;;;;;;;2.60;2.22;;;20.20;49.90;;;;;;5018631;28;20030;-63
2021/06/05 05:02:59;;;;;;;3.38;2.63;;;20.30;50.00;;;;;;5012616;28;20437;-64
2021/06/05 05:05:25;;;;;;;4.18;2.25;;;20.30;49.90;;;;;;5014787;28;20053;-63
2021/06/05 05:07:52;;;;;;;2.90;2.20;;;20.20;50.00;;;;;;5014476;28;20050;-64
2021/06/05 05:10:20;;;;;;;2.75;2.50;;;20.20;49.70;;;;;;5015162;28;20092;-63
2021/06/05 05:12:46;;;;;;;5.82;2.17;;;20.30;49.70;;;;;;5012598;28;20072;-64
2021/06/05 05:15:13;;;;;;;4.60;2.83;;;20.30;49.60;;;;;;5014006;28;20030;-64
2021/06/05 05:17:38;;;;;;;2.30;2.10;;;20.40;49.50;;;;;;5015254;28;20037;-64
2021/06/05 05:20:08;;;;;;;3.13;2.80;;;20.40;49.70;;;;;;5015427;28;20025;-64
2021/06/05 05:22:35;;;;;;;3.15;2.15;;;20.30;49.80;;;;;;5012469;28;20432;-64
2021/06/05 05:25:00;;;;;;;3.72;2.42;;;20.30;49.60;;;;;;5016154;28;20021;-63
2021/06/05 05:27:26;;;;;;;5.53;2.10;;;20.40;49.70;;;;;;5015674;28;20029;-64
2021/06/05 05:29:52;;;;;;;2.75;1.92;;;20.40;49.60;;;;;;5015551;28;20486;-65
2021/06/05 05:32:18;;;;;;;6.25;2.45;;;20.50;49.40;;;;;;5010548;28;20044;-65
2021/06/05 05:34:43;;;;;;;2.60;2.15;;;20.50;49.50;;;;;;5012204;28;20038;-64
2021/06/05 05:37:09;;;;;;;5.20;2.40;;;20.50;49.80;;;;;;5013229;28;20100;-63
2021/06/05 05:39:35;;;;;;;4.88;2.28;;;20.40;50.00;;;;;;5012889;28;20030;-64
2021/06/05 05:42:01;;;;;;;4.00;2.30;;;20.50;50.10;;;;;;5005251;28;20038;-63
2021/06/05 05:44:26;;;;;;;3.92;2.35;;;20.50;50.20;;;;;;5013314;28;20554;-63
2021/06/05 05:46:52;;;;;;;3.08;2.78;;;20.60;50.00;;;;;;5013477;28;20026;-64
2021/06/05 05:49:18;;;;;;;3.33;2.20;;;20.60;50.00;;;;;;5014420;28;20492;-63
2021/06/05 05:51:44;;;;;;;3.97;2.13;;;20.60;50.00;;;;;;5012113;28;20105;-65
2021/06/05 05:54:11;;;;;;;3.78;2.60;;;20.70;49.90;;;;;;5014152;28;20038;-64
2021/06/05 05:56:36;;;;;;;4.05;2.40;;;20.80;49.70;;;;;;5009755;28;20025;-65
2021/06/05 05:59:04;;;;;;;3.42;2.00;;;20.80;49.50;;;;;;5013603;28;20048;-65
2021/06/05 06:01:31;;;;;;;2.20;1.92;;;20.80;50.00;;;;;;5011250;28;20033;-63
2021/06/05 06:03:57;;;;;;;3.10;2.45;;;20.80;49.70;;;;;;5027565;28;20037;-64
2021/06/05 06:06:26;;;;;;;2.63;2.30;;;20.80;49.80;;;;;;5015116;28;20411;-63
2021/06/05 06:08:53;;;;;;;4.47;2.28;;;20.90;49.80;;;;;;5009337;28;20033;-63
2021/06/05 06:11:19;;;;;;;3.13;2.05;;;20.90;49.50;;;;;;5006395;28;20026;-63
2021/06/05 06:13:45;;;;;;;3.60;2.58;;;20.90;49.40;;;;;;5006306;28;20049;-64
2021/06/05 06:16:13;;;;;;;9.82;1.92;;;20.90;49.30;;;;;;5010142;28;20030;-60
2021/06/05 06:18:40;;;;;;;6.07;2.05;;;20.90;49.10;;;;;;5010417;28;20026;-61
2021/06/05 06:21:08;;;;;;;3.28;2.05;;;21.00;48.80;;;;;;5010045;28;20614;-61
2021/06/05 06:23:36;;;;;;;5.22;1.98;;;21.10;48.60;;;;;;5008476;28;20030;-61
2021/06/05 06:26:06;;;;;;;3.78;1.90;;;21.10;48.50;;;;;;5008356;28;20025;-60
2021/06/05 06:28:35;;;;;;;7.45;1.60;;;21.20;48.30;;;;;;5008894;28;20069;-60
2021/06/05 06:31:02;;;;;;;3.25;1.35;;;21.40;48.20;;;;;;5007518;28;20030;-60
2021/06/05 06:33:29;;;;;;;2.78;1.38;;;21.50;48.10;;;;;;5003799;28;20076;-62
2021/06/05 06:35:56;;;;;;;7.68;1.70;;;21.60;47.90;;;;;;5005181;28;20104;-60
2021/06/05 06:38:37;;;;;;;3.90;1.42;;;21.60;47.80;;;;;;5010341;28;20026;-61
2021/06/05 06:41:07;;;;;;;3.20;1.10;;;21.60;47.70;;;;;;5010531;28;20030;-61
2021/06/05 06:43:33;;;;;;;5.18;1.10;;;21.70;47.60;;;;;;5011969;28;20022;-61
2021/06/05 06:46:17;;;;;;;2.58;1.20;;;21.70;47.50;;;;;;5010968;28;20030;-62
2021/06/05 06:48:43;;;;;;;1.95;1.10;;;21.80;47.40;;;;;;5011149;28;20060;-61
2021/06/05 06:51:09;;;;;;;1.48;1.08;;;21.80;47.30;;;;;;5011073;28;20102;-60
2021/06/05 06:53:36;;;;;;;1.42;1.15;;;21.90;47.30;;;;;;5010901;28;20117;-61
2021/06/05 06:56:04;;;;;;;1.45;1.00;;;21.90;47.20;;;;;;5013953;28;20439;-61
2021/06/05 06:58:30;;;;;;;6.63;1.10;;;21.90;47.20;;;;;;5012618;28;20033;-60
2021/06/05 07:00:56;;;;;;;1.13;0.90;;;22.00;47.20;;;;;;5011909;28;20100;-61
2021/06/05 07:03:21;;;;;;;3.65;1.10;;;22.00;47.10;;;;;;5008930;28;20495;-61
2021/06/05 07:05:47;;;;;;;2.15;1.00;;;22.00;47.10;;;;;;5010416;28;20149;-60
2021/06/05 07:08:16;;;;;;;2.15;1.10;;;22.00;47.00;;;;;;5011554;28;20061;-60
2021/06/05 07:10:42;;;;;;;2.40;1.23;;;22.00;47.00;;;;;;5013673;28;20072;-61
2021/06/05 07:13:08;;;;;;;2.15;1.17;;;22.00;47.00;;;;;;5011808;28;20490;-61
2021/06/05 07:15:35;;;;;;;4.43;1.45;;;22.10;46.90;;;;;;5013622;28;20356;-62
2021/06/05 07:18:01;;;;;;;4.22;0.93;;;22.10;46.80;;;;;;5009483;28;20029;-60
2021/06/05 07:20:28;;;;;;;0.70;0.70;;;22.10;46.80;;;;;;5013314;28;20092;-61
2021/06/05 07:22:54;;;;;;;0.98;0.70;;;22.10;46.90;;;;;;5008830;28;20092;-62
2021/06/05 07:25:20;;;;;;;2.20;0.63;;;22.10;46.90;;;;;;5012051;28;20476;-60
2021/06/05 07:27:47;;;;;;;0.95;0.82;;;22.20;46.90;;;;;;5012226;28;20463;-61
2021/06/05 07:30:13;;;;;;;0.80;0.70;;;22.20;46.90;;;;;;5013948;28;20026;-61
2021/06/05 07:32:39;;;;;;;2.15;1.15;;;22.20;46.90;;;;;;5011383;28;20041;-61
2021/06/05 07:35:06;;;;;;;5.57;1.23;;;22.20;46.80;;;;;;5013204;28;20408;-60
2021/06/05 07:37:31;;;;;;;2.05;0.50;;;22.20;46.80;;;;;;5011755;28;20026;-61
2021/06/05 07:39:57;;;;;;;1.35;0.70;;;22.30;46.80;;;;;;5010842;28;20341;-59
2021/06/05 07:42:23;;;;;;;1.58;0.52;;;22.30;46.80;;;;;;5013157;28;20102;-59
2021/06/05 07:44:50;;;;;;;2.88;0.70;;;22.30;46.80;;;;;;5011586;28;20038;-60
2021/06/05 07:47:16;;;;;;;5.05;0.93;;;22.30;46.80;;;;;;5011415;28;20347;-60
2021/06/05 07:49:41;;;;;;;2.97;0.80;;;22.30;46.70;;;;;;5014407;28;20028;-60
2021/06/05 07:52:11;;;;;;;1.10;0.70;;;22.30;46.70;;;;;;5012004;28;20697;-60
2021/06/05 07:54:36;;;;;;;3.53;1.33;;;22.30;46.70;;;;;;5012762;28;20084;-61
2021/06/05 07:57:03;;;;;;;1.70;0.82;;;22.30;46.70;;;;;;5014094;28;20049;-62
2021/06/05 07:59:29;;;;;;;1.05;0.77;;;22.40;46.70;;;;;;5011606;28;20034;-61
2021/06/05 08:01:56;;;;;;;2.55;1.25;;;22.40;46.70;;;;;;5009875;28;20041;-62
2021/06/05 08:04:22;;;;;;;3.65;1.25;;;22.40;46.60;;;;;;5011986;28;20025;-61
2021/06/05 08:06:49;;;;;;;4.97;0.80;;;22.40;46.60;;;;;;5010942;28;20082;-61
2021/06/05 08:09:16;;;;;;;2.22;0.75;;;22.40;46.60;;;;;;5009277;28;20120;-61
2021/06/05 08:11:42;;;;;;;3.58;1.17;;;22.40;46.60;;;;;;5011170;28;20034;-60
2021/06/05 08:14:08;;;;;;;3.08;1.10;;;22.40;46.80;;;;;;5010289;28;20488;-61
2021/06/05 08:16:37;;;;;;;7.88;1.00;;;22.50;46.70;;;;;;5006895;28;20036;-62
2021/06/05 08:19:08;;;;;;;3.33;1.60;;;22.50;46.60;;;;;;5004449;28;20116;-62
2021/06/05 08:21:34;;;;;;;5.88;1.00;;;22.50;46.80;;;;;;5000768;28;20510;-64
2021/06/05 08:24:00;;;;;;;5.95;1.13;;;22.50;46.70;;;;;;5004426;28;20543;-62
2021/06/05 08:26:26;;;;;;;3.10;1.00;;;22.60;46.70;;;;;;5010067;28;20030;-62
2021/06/05 08:28:52;;;;;;;4.03;1.52;;;22.60;46.70;;;;;;5009315;28;20675;-64
2021/06/05 08:31:19;;;;;;;4.65;1.08;;;22.60;46.60;;;;;;5006230;28;20061;-63
2021/06/05 08:33:45;;;;;;;1.45;0.82;;;22.60;46.80;;;;;;5005362;28;20034;-69
2021/06/05 08:36:12;;;;;;;2.88;1.38;;;22.60;46.40;;;;;;5013594;28;20030;-67
2021/06/05 08:38:39;;;;;;;3.63;0.82;;;22.60;46.70;;;;;;5008424;28;20464;-64
2021/06/05 08:41:19;;;;;;;3.28;1.33;;;22.60;46.60;;;;;;5007144;28;20511;-67
2021/06/05 08:43:52;;;;;;;6.43;1.08;;;22.60;46.60;;;;;;5004826;28;20034;-63
2021/06/05 08:46:27;;;;;;;6.13;1.55;;;22.70;46.70;;;;;;5006798;28;20041;-65
2021/06/05 08:48:55;;;;;;;18.38;2.97;;;22.70;46.60;;;;;;5012005;28;20064;-61
2021/06/05 08:51:49;;;;;;;5.43;1.67;;;22.70;46.60;;;;;;5012362;28;20026;-68
2021/06/05 08:54:40;;;;;;;14.77;2.00;;;22.70;46.90;;;;;;5008231;28;20075;-71
2021/06/05 08:57:29;;;;;;;10.20;2.15;;;22.70;47.10;;;;;;5004685;28;20121;-66
2021/06/05 09:00:04;;;;;;;7.75;1.83;;;22.70;47.00;;;;;;5010610;28;20045;-64
2021/06/05 09:02:32;;;;;;;6.70;2.47;;;22.70;47.30;;;;;;5008738;28;20030;-62
2021/06/05 09:05:00;;;;;;;7.03;1.80;;;22.80;47.70;;;;;;5008135;28;20408;-64
2021/06/05 09:07:26;;;;;;;9.00;1.83;;;22.80;47.70;;;;;;5006698;28;20041;-68
2021/06/05 09:09:53;;;;;;;8.43;2.15;;;22.80;48.10;;;;;;5005975;28;20044;-66
2021/06/05 09:12:19;;;;;;;4.32;1.67;;;22.80;48.60;;;;;;5008056;28;20032;-62
2021/06/05 09:14:59;;;;;;;7.72;2.28;;;22.90;48.50;;;;;;5008495;28;20042;-60
2021/06/05 09:17:46;;;;;;;6.45;2.67;;;22.90;48.20;;;;;;5007869;28;20052;-61
2021/06/05 09:20:27;;;;;;;8.23;1.92;;;22.90;48.60;;;;;;5009019;28;20045;-69
2021/06/05 09:22:53;;;;;;;6.18;1.55;;;22.90;48.80;;;;;;5010117;28;20049;-70
2021/06/05 09:25:28;;;;;;;6.53;2.05;;;23.00;48.80;;;;;;5009403;28;20026;-70
2021/06/05 09:28:36;;;;;;;3.47;2.40;;;23.00;48.90;;;;;;5011914;28;20075;-70
2021/06/05 09:31:20;;;;;;;5.78;2.78;;;23.00;48.20;;;;;;4987430;28;20290;-70
2021/06/05 09:33:47;;;;;;;3.85;1.52;;;23.00;48.40;;;;;;5011087;28;20348;-67
2021/06/05 09:36:22;;;;;;;5.70;1.30;;;23.00;48.40;;;;;;5010980;28;20017;-68
2021/06/05 09:38:58;;;;;;;9.40;1.80;;;23.00;48.90;;;;;;5010319;28;20459;-70
2021/06/05 09:41:41;;;;;;;5.72;1.95;;;23.00;49.30;;;;;;5012189;28;20487;-65
2021/06/05 09:44:26;;;;;;;4.68;1.83;;;23.00;49.10;;;;;;5012598;28;20124;-64
2021/06/05 09:47:05;;;;;;;4.78;1.58;;;23.00;48.60;;;;;;5007679;28;20605;-61
2021/06/05 09:49:38;;;;;;;7.97;1.63;;;23.00;48.20;;;;;;5008352;28;20030;-60
2021/06/05 09:52:13;;;;;;;5.88;2.38;;;23.00;47.30;;;;;;5008522;28;20170;-59
2021/06/05 09:54:44;;;;;;;6.32;2.30;;;23.00;48.30;;;;;;5004841;28;20042;-59
2021/06/05 09:57:31;;;;;;;3.67;2.40;;;23.00;47.90;;;;;;5013152;28;20729;-59
2021/06/05 10:00:13;;;;;;;11.52;2.17;;;23.00;47.10;;;;;;5011074;28;20422;-59
2021/06/05 10:02:48;;;;;;;5.32;2.28;;;23.10;47.20;;;;;;5013785;28;20064;-58
2021/06/05 10:05:38;;;;;;;4.53;1.85;;;23.10;47.80;;;;;;5009289;28;20496;-57
2021/06/05 10:08:38;;;;;;;99.53;35.08;;;23.10;47.30;;;;;;5005287;28;20058;-59
2021/06/05 10:11:13;;;;;;;196.57;96.60;;;23.10;47.30;;;;;;5014024;28;20037;-60
2021/06/05 10:13:43;;;;;;;39.97;21.25;;;23.10;47.10;;;;;;5014037;28;20030;-60
2021/06/05 10:16:11;;;;;;;111.88;57.25;;;23.10;45.80;;;;;;5011284;28;20069;-61
2021/06/05 10:18:46;;;;;;;199.82;95.57;;;23.00;45.50;;;;;;5012931;28;20026;-61
2021/06/05 10:21:31;;;;;;;105.13;52.70;;;23.00;46.90;;;;;;5015346;28;20365;-61
2021/06/05 10:24:11;;;;;;;67.63;30.40;;;23.10;46.10;;;;;;5013076;28;20425;-64
2021/06/05 10:26:43;;;;;;;51.47;25.42;;;23.10;45.80;;;;;;5013356;28;20039;-60
2021/06/05 10:29:33;;;;;;;28.40;14.35;;;23.20;45.90;;;;;;5004853;28;20520;-59
2021/06/05 10:32:05;;;;;;;14.60;8.13;;;23.20;45.10;;;;;;5006732;28;20038;-62
2021/06/05 10:34:40;;;;;;;8.95;5.30;;;23.20;44.70;;;;;;5006216;28;20044;-60
2021/06/05 10:37:15;;;;;;;31.45;15.63;;;23.10;44.40;;;;;;5008625;28;20480;-61
2021/06/05 10:39:44;;;;;;;22.63;10.50;;;23.20;45.00;;;;;;5009145;28;20484;-59
2021/06/05 10:42:24;;;;;;;13.25;7.55;;;23.20;45.10;;;;;;5007518;28;20439;-60
2021/06/05 10:44:51;;;;;;;14.50;8.57;;;23.20;44.80;;;;;;5011086;28;20022;-60
2021/06/05 10:47:50;;;;;;;26.85;12.80;;;23.20;44.80;;;;;;5010279;28;20037;-60
2021/06/05 10:50:19;;;;;;;28.80;15.23;;;23.20;45.10;;;;;;5011098;28;20046;-61
2021/06/05 10:52:54;;;;;;;24.25;14.20;;;23.20;45.20;;;;;;5012505;28;20033;-60
2021/06/05 10:55:26;;;;;;;27.50;13.60;;;23.20;45.40;;;;;;5012927;28;20030;-61
2021/06/05 10:58:22;;;;;;;30.42;14.68;;;23.20;45.50;;;;;;5014003;28;20061;-61
2021/06/05 11:00:54;;;;;;;27.73;13.13;;;23.10;45.40;;;;;;5012698;28;20129;-60
2021/06/05 11:03:22;;;;;;;24.77;10.80;;;23.10;45.50;;;;;;5016343;28;20372;-59
2021/06/05 11:06:03;;;;;;;21.67;10.88;;;23.10;45.50;;;;;;5014090;28;20111;-59
2021/06/05 11:08:30;;;;;;;20.63;10.07;;;23.10;45.50;;;;;;5016281;28;20042;-60
2021/06/05 11:11:02;;;;;;;22.55;10.77;;;23.10;45.50;;;;;;5022170;28;20029;-60
2021/06/05 11:13:35;;;;;;;17.27;8.70;;;23.10;45.50;;;;;;5016407;28;20160;-60
2021/06/05 11:16:17;;;;;;;11.75;7.00;;;23.10;45.50;;;;;;5015841;28;20043;-60
2021/06/05 11:18:44;;;;;;;13.68;7.35;;;23.10;45.50;;;;;;5015543;28;20068;-60
2021/06/05 11:21:22;;;;;;;12.02;6.45;;;23.10;45.40;;;;;;5014666;28;20018;-60
2021/06/05 11:23:57;;;;;;;14.68;8.05;;;23.10;45.40;;;;;;5012150;28;20041;-60
2021/06/05 11:26:38;;;;;;;11.43;5.82;;;23.10;45.40;;;;;;5015829;28;20030;-60
2021/06/05 11:29:26;;;;;;;10.55;5.82;;;23.10;45.40;;;;;;5015258;28;20500;-60
2021/06/05 11:32:03;;;;;;;7.60;4.70;;;23.00;45.30;;;;;;5013855;28;20068;-60
2021/06/05 11:34:28;;;;;;;8.85;4.85;;;23.10;45.30;;;;;;5014678;28;20041;-60
2021/06/05 11:37:01;;;;;;;9.82;4.80;;;23.10;45.30;;;;;;5016057;28;20026;-59
2021/06/05 11:39:26;;;;;;;9.88;4.63;;;23.10;45.20;;;;;;5015300;28;20034;-60
2021/06/05 11:41:55;;;;;;;7.70;4.30;;;23.10;45.20;;;;;;5014472;28;20505;-60
2021/06/05 11:44:28;;;;;;;4.78;3.22;;;23.10;45.10;;;;;;5015219;28;20154;-60
2021/06/05 11:47:17;;;;;;;5.35;2.92;;;23.00;45.00;;;;;;5014573;28;20034;-60
2021/06/05 11:49:44;;;;;;;6.00;3.00;;;23.00;45.00;;;;;;5014019;28;20170;-60
2021/06/05 11:52:34;;;;;;;6.05;3.67;;;23.00;44.90;;;;;;5014706;28;20488;-60
2021/06/05 11:55:27;;;;;;;5.05;2.90;;;23.10;44.90;;;;;;5015978;28;20091;-60
2021/06/05 11:57:53;;;;;;;5.22;2.90;;;23.00;44.80;;;;;;5015922;28;20247;-61
2021/06/05 12:00:21;;;;;;;3.92;2.60;;;23.10;44.80;;;;;;5012795;28;20033;-59
2021/06/05 12:02:54;;;;;;;5.75;2.75;;;23.10;44.70;;;;;;5014606;28;20029;-59
2021/06/05 12:05:28;;;;;;;5.07;2.90;;;23.00;44.50;;;;;;5012848;28;20321;-59
2021/06/05 12:07:54;;;;;;;4.50;3.08;;;23.10;44.60;;;;;;5008300;28;20107;-59
2021/06/05 12:10:36;;;;;;;6.45;3.00;;;23.10;44.70;;;;;;5011366;28;20029;-59
2021/06/05 12:13:06;;;;;;;9.75;2.97;;;23.10;44.60;;;;;;5015161;28;20033;-59
2021/06/05 12:15:38;;;;;;;6.43;2.78;;;23.10;44.60;;;;;;5013196;28;20033;-59
2021/06/05 12:18:23;;;;;;;5.40;2.10;;;23.10;44.60;;;;;;5005267;28;20029;-59
2021/06/05 12:20:58;;;;;;;9.53;2.60;;;23.10;44.60;;;;;;5010832;28;20026;-60
2021/06/05 12:23:35;;;;;;;3.33;2.70;;;23.30;44.30;;;;;;5012631;28;20038;-59
2021/06/05 12:26:01;;;;;;;6.35;2.55;;;23.50;42.80;;;;;;5008666;28;20036;-59
2021/06/05 12:28:30;;;;;;;3.05;2.17;;;23.60;43.20;;;;;;5009721;28;20030;-59
2021/06/05 12:31:09;;;;;;;6.07;1.98;;;23.70;42.30;;;;;;5011725;28;20038;-58
2021/06/05 12:33:35;;;;;;;5.35;2.30;;;23.50;42.50;;;;;;5010206;28;20038;-59
2021/06/05 12:36:46;;;;;;;5.75;2.90;;;23.50;42.50;;;;;;5008032;28;20033;-57
2021/06/05 12:39:14;;;;;;;5.30;2.40;;;23.40;42.90;;;;;;4985414;28;20085;-59
2021/06/05 12:41:46;;;;;;;4.97;2.38;;;23.40;43.40;;;;;;5003148;28;20030;-60
2021/06/05 12:44:34;;;;;;;2.97;2.30;;;23.50;42.70;;;;;;5004018;28;20120;-59
2021/06/05 12:47:04;;;;;;;4.70;3.15;;;23.50;42.80;;;;;;5003598;28;20056;-60
2021/06/05 12:49:31;;;;;;;6.82;4.65;;;23.60;42.10;;;;;;5002993;28;20029;-60
2021/06/05 12:52:01;;;;;;;3.50;3.20;;;23.60;41.60;;;;;;5001109;28;20022;-59
2021/06/05 12:54:29;;;;;;;7.97;5.70;;;23.70;42.10;;;;;;5001331;28;20082;-59
2021/06/05 12:56:57;;;;;;;5.43;4.00;;;23.70;42.30;;;;;;5007976;28;20723;-59
2021/06/05 12:59:41;;;;;;;7.85;2.80;;;23.60;42.30;;;;;;5005619;28;20578;-59
2021/06/05 13:02:30;;;;;;;8.43;3.70;;;23.60;42.50;;;;;;5004169;28;20148;-59
2021/06/05 13:05:18;;;;;;;5.57;4.03;;;23.60;42.80;;;;;;5009381;28;20079;-59